This is the latest recevied weather packets stored in our database for station/object KA7EII-13. If no packets are shown the sender has not sent any weather packets the latest 10 day(s).
| Time | Temp. | Humidity | Pressure | Rain* | Wind** | Luminosity | Snow |
|---|---|---|---|---|---|---|---|
| 1778075531 | 1.67° C | 61% | 1109 hPa | 0 mm | - | 33 W/m² | - |
| 1778075227 | 1.67° C | 59% | 1109.1 hPa | 0 mm | - | 32 W/m² | - |
| 1778074923 | 1.11° C | 63% | 1109.2 hPa | 0 mm | - | 31 W/m² | - |
| 1778074621 | 1.11° C | 65% | 1109 hPa | 0 mm | - | 30 W/m² | - |
| 1778074317 | 1.11° C | 66% | 1109 hPa | 0 mm | - | 29 W/m² | - |
| 1778074015 | 1.11° C | 65% | 1108.6 hPa | 0 mm | - | 28 W/m² | - |
| 1778073711 | 1.11° C | 61% | 1108.7 hPa | 0 mm | - | 27 W/m² | - |
| 1778073409 | 1.11° C | 61% | 1108.7 hPa | 0 mm | - | 26 W/m² | - |
| 1778073105 | 0.56° C | 61% | 1108.7 hPa | 0 mm | - | 24 W/m² | - |
| 1778072802 | 0.56° C | 61% | 1108.6 hPa | 0 mm | - | 22 W/m² | - |
| 1778072500 | 0.56° C | 63% | 1108.9 hPa | 0 mm | - | 20 W/m² | - |
| 1778072198 | 0° C | 67% | 1108.4 hPa | 0 mm | - | 18 W/m² | - |
| 1778071895 | 0° C | 68% | 1108.4 hPa | 0 mm | - | 17 W/m² | - |
| 1778071593 | -0.56° C | 69% | 1108.2 hPa | 0 mm | - | 15 W/m² | - |
| 1778071291 | -0.56° C | 68% | 1108.3 hPa | 0 mm | - | 12 W/m² | - |
| 1778070988 | 0° C | 66% | 1108.2 hPa | 0 mm | - | 10 W/m² | - |
| 1778070686 | 0° C | 64% | 1108.1 hPa | 0 mm | - | 8 W/m² | - |
| 1778070383 | 0° C | 66% | 1108.1 hPa | 0 mm | - | 6 W/m² | - |
| 1778070081 | 0° C | 64% | 1108.1 hPa | 0 mm | - | 4 W/m² | - |
| 1778069778 | 0.56° C | 61% | 1107.7 hPa | 0 mm | - | 2 W/m² | - |
| 1778069474 | 0.56° C | 59% | 1108.1 hPa | 0 mm | - | 1 W/m² | - |
| 1778069173 | 1.11° C | 59% | 1107.8 hPa | 0 mm | - | 0 W/m² | - |
| 1778068869 | 0.56° C | 59% | 1108.1 hPa | 0 mm | - | 0 W/m² | - |
| 1778068568 | 0.56° C | 59% | 1107.8 hPa | 0 mm | - | 0 W/m² | - |
| 1778068266 | 0.56° C | 60% | 1107.9 hPa | 0 mm | - | 0 W/m² | - |
* Rain latest hour (hover to see other rain measurements)
** Current wind speed in m/s (hover to see current wind gust speed)